sensor_id;sensor_type;location;lat;lon;timestamp;temperature;humidity
10123;DHT22;5101;49.038;8.710;2023-03-31T00:01:11;11.90;99.90
10123;DHT22;5101;49.038;8.710;2023-03-31T00:03:36;11.90;99.90
10123;DHT22;5101;49.038;8.710;2023-03-31T00:06:09;11.90;99.90
10123;DHT22;5101;49.038;8.710;2023-03-31T00:08:35;11.90;99.90
10123;DHT22;5101;49.038;8.710;2023-03-31T00:11:03;11.90;99.90
10123;DHT22;5101;49.038;8.710;2023-03-31T00:13:30;11.90;99.90
10123;DHT22;5101;49.038;8.710;2023-03-31T00:16:00;11.80;99.90
10123;DHT22;5101;49.038;8.710;2023-03-31T00:18:26;11.80;99.90
10123;DHT22;5101;49.038;8.710;2023-03-31T00:20:53;11.80;99.90
10123;DHT22;5101;49.038;8.710;2023-03-31T00:23:19;11.70;99.90
10123;DHT22;5101;49.038;8.710;2023-03-31T00:25:53;11.80;99.90
10123;DHT22;5101;49.038;8.710;2023-03-31T00:28:19;11.80;99.90
10123;DHT22;5101;49.038;8.710;2023-03-31T00:30:44;11.80;99.90
10123;DHT22;5101;49.038;8.710;2023-03-31T00:33:12;11.80;99.90
10123;DHT22;5101;49.038;8.710;2023-03-31T00:35:37;11.90;99.90
10123;DHT22;5101;49.038;8.710;2023-03-31T00:38:03;11.90;99.90
10123;DHT22;5101;49.038;8.710;2023-03-31T00:40:30;11.80;99.90
10123;DHT22;5101;49.038;8.710;2023-03-31T00:42:56;11.80;99.90
10123;DHT22;5101;49.038;8.710;2023-03-31T00:45:25;11.80;99.90
10123;DHT22;5101;49.038;8.710;2023-03-31T00:48:07;11.80;99.90
10123;DHT22;5101;49.038;8.710;2023-03-31T00:50:47;11.80;99.90
10123;DHT22;5101;49.038;8.710;2023-03-31T00:53:16;11.80;99.90
10123;DHT22;5101;49.038;8.710;2023-03-31T00:55:47;11.90;99.90
10123;DHT22;5101;49.038;8.710;2023-03-31T00:58:14;11.80;99.90
10123;DHT22;5101;49.038;8.710;2023-03-31T01:00:45;11.80;99.90
10123;DHT22;5101;49.038;8.710;2023-03-31T01:03:13;11.80;99.90
10123;DHT22;5101;49.038;8.710;2023-03-31T01:05:44;11.80;99.90
10123;DHT22;5101;49.038;8.710;2023-03-31T01:08:12;11.80;99.90
10123;DHT22;5101;49.038;8.710;2023-03-31T01:10:44;11.80;99.90
10123;DHT22;5101;49.038;8.710;2023-03-31T01:13:12;11.80;99.90
10123;DHT22;5101;49.038;8.710;2023-03-31T01:15:39;11.80;99.90
10123;DHT22;5101;49.038;8.710;2023-03-31T01:18:05;11.70;99.90
10123;DHT22;5101;49.038;8.710;2023-03-31T01:20:36;11.70;99.90
10123;DHT22;5101;49.038;8.710;2023-03-31T01:23:54;11.60;99.90
10123;DHT22;5101;49.038;8.710;2023-03-31T01:26:35;11.60;99.90
10123;DHT22;5101;49.038;8.710;2023-03-31T01:36:05;11.70;99.90
10123;DHT22;5101;49.038;8.710;2023-03-31T01:38:31;11.80;99.90
10123;DHT22;5101;49.038;8.710;2023-03-31T01:41:19;11.80;99.90
10123;DHT22;5101;49.038;8.710;2023-03-31T01:51:51;11.90;99.90
10123;DHT22;5101;49.038;8.710;2023-03-31T01:54:26;12.00;99.90
10123;DHT22;5101;49.038;8.710;2023-03-31T01:56:59;12.00;99.90
10123;DHT22;5101;49.038;8.710;2023-03-31T01:59:30;12.00;99.90
10123;DHT22;5101;49.038;8.710;2023-03-31T02:02:09;12.10;99.90
10123;DHT22;5101;49.038;8.710;2023-03-31T02:04:40;12.10;99.90
10123;DHT22;5101;49.038;8.710;2023-03-31T02:07:38;12.10;99.90
10123;DHT22;5101;49.038;8.710;2023-03-31T02:10:08;12.10;99.90
10123;DHT22;5101;49.038;8.710;2023-03-31T02:12:37;12.10;99.90
10123;DHT22;5101;49.038;8.710;2023-03-31T02:15:07;12.20;99.90
10123;DHT22;5101;49.038;8.710;2023-03-31T02:17:35;12.20;99.90
10123;DHT22;5101;49.038;8.710;2023-03-31T02:20:11;12.20;99.90
10123;DHT22;5101;49.038;8.710;2023-03-31T02:22:39;12.20;99.90
10123;DHT22;5101;49.038;8.710;2023-03-31T02:25:09;12.20;99.90
10123;DHT22;5101;49.038;8.710;2023-03-31T02:27:38;12.20;99.90
10123;DHT22;5101;49.038;8.710;2023-03-31T02:30:05;12.30;99.90
10123;DHT22;5101;49.038;8.710;2023-03-31T02:32:37;12.30;99.90
10123;DHT22;5101;49.038;8.710;2023-03-31T02:35:04;12.30;99.90
10123;DHT22;5101;49.038;8.710;2023-03-31T02:37:30;12.30;99.90
10123;DHT22;5101;49.038;8.710;2023-03-31T02:40:00;12.30;99.90
10123;DHT22;5101;49.038;8.710;2023-03-31T02:42:27;12.30;99.90
10123;DHT22;5101;49.038;8.710;2023-03-31T02:44:59;12.30;99.90
10123;DHT22;5101;49.038;8.710;2023-03-31T02:47:25;12.30;99.90
10123;DHT22;5101;49.038;8.710;2023-03-31T02:49:53;12.30;99.90
10123;DHT22;5101;49.038;8.710;2023-03-31T02:52:33;12.40;99.90
10123;DHT22;5101;49.038;8.710;2023-03-31T02:55:10;12.40;99.90
10123;DHT22;5101;49.038;8.710;2023-03-31T03:03:07;12.50;99.90
10123;DHT22;5101;49.038;8.710;2023-03-31T03:17:27;12.30;99.90
10123;DHT22;5101;49.038;8.710;2023-03-31T03:19:57;12.30;99.90
10123;DHT22;5101;49.038;8.710;2023-03-31T03:22:24;12.30;99.90
10123;DHT22;5101;49.038;8.710;2023-03-31T03:24:50;12.30;99.90
10123;DHT22;5101;49.038;8.710;2023-03-31T03:27:17;12.30;99.90
10123;DHT22;5101;49.038;8.710;2023-03-31T03:29:43;12.30;99.90
10123;DHT22;5101;49.038;8.710;2023-03-31T03:32:09;12.20;99.90
10123;DHT22;5101;49.038;8.710;2023-03-31T03:34:35;12.30;99.90
10123;DHT22;5101;49.038;8.710;2023-03-31T03:37:00;12.20;99.90
10123;DHT22;5101;49.038;8.710;2023-03-31T03:39:26;12.20;99.90
10123;DHT22;5101;49.038;8.710;2023-03-31T03:41:51;12.10;99.90
10123;DHT22;5101;49.038;8.710;2023-03-31T03:44:17;12.10;99.90
10123;DHT22;5101;49.038;8.710;2023-03-31T03:46:42;12.10;99.90
10123;DHT22;5101;49.038;8.710;2023-03-31T03:49:08;12.10;99.90
10123;DHT22;5101;49.038;8.710;2023-03-31T03:51:33;12.10;99.90
10123;DHT22;5101;49.038;8.710;2023-03-31T03:53:59;12.00;99.90
10123;DHT22;5101;49.038;8.710;2023-03-31T03:56:24;11.90;99.90
10123;DHT22;5101;49.038;8.710;2023-03-31T03:58:50;11.90;99.90
10123;DHT22;5101;49.038;8.710;2023-03-31T04:01:16;11.90;99.90
10123;DHT22;5101;49.038;8.710;2023-03-31T04:03:42;11.90;99.90
10123;DHT22;5101;49.038;8.710;2023-03-31T04:06:08;11.90;99.90
10123;DHT22;5101;49.038;8.710;2023-03-31T04:08:33;11.90;99.90
10123;DHT22;5101;49.038;8.710;2023-03-31T04:10:59;11.90;99.90
10123;DHT22;5101;49.038;8.710;2023-03-31T04:13:24;11.90;99.90
10123;DHT22;5101;49.038;8.710;2023-03-31T04:15:50;11.90;99.90
10123;DHT22;5101;49.038;8.710;2023-03-31T04:18:15;11.90;99.90
10123;DHT22;5101;49.038;8.710;2023-03-31T04:20:51;11.90;99.90
10123;DHT22;5101;49.038;8.710;2023-03-31T04:23:31;11.90;99.90
10123;DHT22;5101;49.038;8.710;2023-03-31T04:25:57;11.90;99.90
10123;DHT22;5101;49.038;8.710;2023-03-31T04:28:23;11.90;99.90
10123;DHT22;5101;49.038;8.710;2023-03-31T04:30:51;11.90;99.90
10123;DHT22;5101;49.038;8.710;2023-03-31T04:33:19;11.80;99.90
10123;DHT22;5101;49.038;8.710;2023-03-31T04:35:46;11.80;99.90
10123;DHT22;5101;49.038;8.710;2023-03-31T04:38:16;11.80;99.90
10123;DHT22;5101;49.038;8.710;2023-03-31T04:40:48;11.80;99.90
10123;DHT22;5101;49.038;8.710;2023-03-31T04:43:15;11.80;99.90
10123;DHT22;5101;49.038;8.710;2023-03-31T04:45:41;11.80;99.90
10123;DHT22;5101;49.038;8.710;2023-03-31T04:48:07;11.80;99.90
10123;DHT22;5101;49.038;8.710;2023-03-31T04:50:32;11.80;99.90
10123;DHT22;5101;49.038;8.710;2023-03-31T04:52:58;11.80;99.90
10123;DHT22;5101;49.038;8.710;2023-03-31T04:55:24;11.80;99.90
10123;DHT22;5101;49.038;8.710;2023-03-31T04:57:49;11.80;99.90
10123;DHT22;5101;49.038;8.710;2023-03-31T05:00:16;11.70;99.90
10123;DHT22;5101;49.038;8.710;2023-03-31T05:02:42;11.80;99.90
10123;DHT22;5101;49.038;8.710;2023-03-31T05:05:08;11.70;99.90
10123;DHT22;5101;49.038;8.710;2023-03-31T05:07:34;11.80;99.90
10123;DHT22;5101;49.038;8.710;2023-03-31T05:10:00;11.70;99.90
10123;DHT22;5101;49.038;8.710;2023-03-31T05:12:25;11.70;99.90
10123;DHT22;5101;49.038;8.710;2023-03-31T05:14:51;11.70;99.90
10123;DHT22;5101;49.038;8.710;2023-03-31T05:17:16;11.70;99.90
10123;DHT22;5101;49.038;8.710;2023-03-31T05:19:43;11.70;99.90
10123;DHT22;5101;49.038;8.710;2023-03-31T05:22:08;11.70;99.90
10123;DHT22;5101;49.038;8.710;2023-03-31T05:24:34;11.70;99.90
10123;DHT22;5101;49.038;8.710;2023-03-31T05:26:59;11.70;99.90
10123;DHT22;5101;49.038;8.710;2023-03-31T05:29:25;11.70;99.90
10123;DHT22;5101;49.038;8.710;2023-03-31T05:31:51;11.70;99.90
10123;DHT22;5101;49.038;8.710;2023-03-31T05:34:18;11.70;99.90
10123;DHT22;5101;49.038;8.710;2023-03-31T05:36:44;11.70;99.90
10123;DHT22;5101;49.038;8.710;2023-03-31T05:39:12;11.70;99.90
10123;DHT22;5101;49.038;8.710;2023-03-31T05:41:38;11.60;99.90
10123;DHT22;5101;49.038;8.710;2023-03-31T05:44:04;11.70;99.90
10123;DHT22;5101;49.038;8.710;2023-03-31T05:46:30;11.60;99.90
10123;DHT22;5101;49.038;8.710;2023-03-31T05:48:55;11.70;99.90
10123;DHT22;5101;49.038;8.710;2023-03-31T05:51:21;11.60;99.90
10123;DHT22;5101;49.038;8.710;2023-03-31T05:53:47;11.60;99.90
10123;DHT22;5101;49.038;8.710;2023-03-31T05:56:12;11.60;99.90
10123;DHT22;5101;49.038;8.710;2023-03-31T05:58:38;11.60;99.90
10123;DHT22;5101;49.038;8.710;2023-03-31T06:01:09;11.60;99.90
10123;DHT22;5101;49.038;8.710;2023-03-31T06:03:36;11.60;99.90
10123;DHT22;5101;49.038;8.710;2023-03-31T06:06:02;11.60;99.90
10123;DHT22;5101;49.038;8.710;2023-03-31T06:08:30;11.60;99.90
10123;DHT22;5101;49.038;8.710;2023-03-31T06:10:56;11.70;99.90
10123;DHT22;5101;49.038;8.710;2023-03-31T06:13:21;11.70;99.90
10123;DHT22;5101;49.038;8.710;2023-03-31T06:15:58;11.70;99.90
10123;DHT22;5101;49.038;8.710;2023-03-31T06:18:25;11.70;99.90
10123;DHT22;5101;49.038;8.710;2023-03-31T06:20:53;11.70;99.90
10123;DHT22;5101;49.038;8.710;2023-03-31T06:23:19;11.80;99.90
10123;DHT22;5101;49.038;8.710;2023-03-31T06:25:44;11.80;99.90
10123;DHT22;5101;49.038;8.710;2023-03-31T06:28:10;11.80;99.90
10123;DHT22;5101;49.038;8.710;2023-03-31T06:30:35;11.80;99.90
10123;DHT22;5101;49.038;8.710;2023-03-31T06:33:01;11.80;99.90
10123;DHT22;5101;49.038;8.710;2023-03-31T06:35:26;11.70;99.90
10123;DHT22;5101;49.038;8.710;2023-03-31T06:37:52;11.70;99.90
10123;DHT22;5101;49.038;8.710;2023-03-31T06:40:17;11.70;99.90
10123;DHT22;5101;49.038;8.710;2023-03-31T06:42:43;11.60;99.90
10123;DHT22;5101;49.038;8.710;2023-03-31T06:45:09;11.60;99.90
10123;DHT22;5101;49.038;8.710;2023-03-31T06:47:35;11.60;99.90
10123;DHT22;5101;49.038;8.710;2023-03-31T06:50:03;11.70;99.90
10123;DHT22;5101;49.038;8.710;2023-03-31T06:52:30;11.70;99.90
10123;DHT22;5101;49.038;8.710;2023-03-31T06:54:55;11.60;99.90
10123;DHT22;5101;49.038;8.710;2023-03-31T06:57:21;11.60;99.90
10123;DHT22;5101;49.038;8.710;2023-03-31T06:59:46;11.70;99.90
10123;DHT22;5101;49.038;8.710;2023-03-31T07:02:12;11.70;99.90
10123;DHT22;5101;49.038;8.710;2023-03-31T07:04:37;11.70;99.90
10123;DHT22;5101;49.038;8.710;2023-03-31T07:07:03;11.70;99.90
10123;DHT22;5101;49.038;8.710;2023-03-31T07:09:28;11.70;99.90
10123;DHT22;5101;49.038;8.710;2023-03-31T07:11:54;11.80;99.90
10123;DHT22;5101;49.038;8.710;2023-03-31T07:14:19;11.80;99.90
10123;DHT22;5101;49.038;8.710;2023-03-31T07:16:45;11.80;99.90
10123;DHT22;5101;49.038;8.710;2023-03-31T07:19:10;11.90;99.90
10123;DHT22;5101;49.038;8.710;2023-03-31T07:21:36;12.00;99.90
10123;DHT22;5101;49.038;8.710;2023-03-31T07:24:03;12.10;99.90
10123;DHT22;5101;49.038;8.710;2023-03-31T07:26:28;12.10;99.90
10123;DHT22;5101;49.038;8.710;2023-03-31T07:28:54;12.20;99.90
10123;DHT22;5101;49.038;8.710;2023-03-31T07:31:22;12.20;99.90
10123;DHT22;5101;49.038;8.710;2023-03-31T07:33:47;12.40;99.90
10123;DHT22;5101;49.038;8.710;2023-03-31T07:36:13;12.60;99.90
10123;DHT22;5101;49.038;8.710;2023-03-31T07:38:40;13.00;99.90
10123;DHT22;5101;49.038;8.710;2023-03-31T07:41:10;13.40;99.90
10123;DHT22;5101;49.038;8.710;2023-03-31T07:43:36;13.80;99.90
10123;DHT22;5101;49.038;8.710;2023-03-31T07:46:02;14.10;99.90
10123;DHT22;5101;49.038;8.710;2023-03-31T07:48:27;14.40;99.90
10123;DHT22;5101;49.038;8.710;2023-03-31T07:50:54;14.50;99.90
10123;DHT22;5101;49.038;8.710;2023-03-31T07:53:19;14.60;99.90
10123;DHT22;5101;49.038;8.710;2023-03-31T07:55:46;14.70;99.90
10123;DHT22;5101;49.038;8.710;2023-03-31T07:58:12;14.70;99.90
10123;DHT22;5101;49.038;8.710;2023-03-31T08:00:37;14.90;99.90
10123;DHT22;5101;49.038;8.710;2023-03-31T08:03:03;15.10;99.90
10123;DHT22;5101;49.038;8.710;2023-03-31T08:05:29;15.50;99.40
10123;DHT22;5101;49.038;8.710;2023-03-31T08:07:54;15.70;98.00
10123;DHT22;5101;49.038;8.710;2023-03-31T08:10:24;15.90;97.20
10123;DHT22;5101;49.038;8.710;2023-03-31T08:12:50;16.30;96.40
10123;DHT22;5101;49.038;8.710;2023-03-31T08:15:16;16.60;95.50
10123;DHT22;5101;49.038;8.710;2023-03-31T08:17:41;16.70;94.10
10123;DHT22;5101;49.038;8.710;2023-03-31T08:20:08;16.80;93.20
10123;DHT22;5101;49.038;8.710;2023-03-31T08:22:35;16.80;92.80
10123;DHT22;5101;49.038;8.710;2023-03-31T08:25:01;17.00;92.30
10123;DHT22;5101;49.038;8.710;2023-03-31T08:27:27;17.30;91.70
10123;DHT22;5101;49.038;8.710;2023-03-31T08:29:52;17.70;90.90
10123;DHT22;5101;49.038;8.710;2023-03-31T08:32:21;17.80;89.90
10123;DHT22;5101;49.038;8.710;2023-03-31T08:34:47;18.20;88.70
10123;DHT22;5101;49.038;8.710;2023-03-31T08:37:12;18.40;86.90
10123;DHT22;5101;49.038;8.710;2023-03-31T08:39:38;18.40;85.80
10123;DHT22;5101;49.038;8.710;2023-03-31T08:42:15;18.40;85.40
10123;DHT22;5101;49.038;8.710;2023-03-31T08:45:02;18.20;85.10
10123;DHT22;5101;49.038;8.710;2023-03-31T08:47:31;18.10;84.40
10123;DHT22;5101;49.038;8.710;2023-03-31T08:50:04;18.20;84.60
10123;DHT22;5101;49.038;8.710;2023-03-31T08:52:35;18.30;84.00
10123;DHT22;5101;49.038;8.710;2023-03-31T08:55:05;18.50;84.00
10123;DHT22;5101;49.038;8.710;2023-03-31T08:57:46;18.90;84.00
10123;DHT22;5101;49.038;8.710;2023-03-31T09:00:17;19.10;81.40
10123;DHT22;5101;49.038;8.710;2023-03-31T09:02:51;19.20;80.70
10123;DHT22;5101;49.038;8.710;2023-03-31T09:08:17;19.30;77.30
10123;DHT22;5101;49.038;8.710;2023-03-31T09:16:14;20.20;73.80
10123;DHT22;5101;49.038;8.710;2023-03-31T09:18:41;20.30;73.20
10123;DHT22;5101;49.038;8.710;2023-03-31T09:21:30;20.60;71.80
10123;DHT22;5101;49.038;8.710;2023-03-31T09:29:27;20.70;66.90
10123;DHT22;5101;49.038;8.710;2023-03-31T09:31:59;20.90;65.40
10123;DHT22;5101;49.038;8.710;2023-03-31T09:34:28;21.00;65.40
10123;DHT22;5101;49.038;8.710;2023-03-31T09:36:55;21.30;64.90
10123;DHT22;5101;49.038;8.710;2023-03-31T09:39:21;21.40;62.40
10123;DHT22;5101;49.038;8.710;2023-03-31T09:41:49;21.50;60.80
10123;DHT22;5101;49.038;8.710;2023-03-31T09:44:23;21.50;59.80
10123;DHT22;5101;49.038;8.710;2023-03-31T09:46:50;21.40;59.20
10123;DHT22;5101;49.038;8.710;2023-03-31T09:49:26;21.50;58.80
10123;DHT22;5101;49.038;8.710;2023-03-31T09:52:05;21.50;55.80
10123;DHT22;5101;49.038;8.710;2023-03-31T09:54:36;20.80;55.70
10123;DHT22;5101;49.038;8.710;2023-03-31T09:57:32;20.30;56.20
10123;DHT22;5101;49.038;8.710;2023-03-31T10:02:54;19.20;58.80
10123;DHT22;5101;49.038;8.710;2023-03-31T10:05:50;19.20;60.20
10123;DHT22;5101;49.038;8.710;2023-03-31T10:10:50;19.10;62.60
10123;DHT22;5101;49.038;8.710;2023-03-31T10:13:22;18.90;63.50
10123;DHT22;5101;49.038;8.710;2023-03-31T10:15:52;19.00;64.40
10123;DHT22;5101;49.038;8.710;2023-03-31T10:18:19;19.10;65.90
10123;DHT22;5101;49.038;8.710;2023-03-31T10:20:50;19.30;66.60
10123;DHT22;5101;49.038;8.710;2023-03-31T10:23:26;19.50;66.30
10123;DHT22;5101;49.038;8.710;2023-03-31T10:25:52;19.50;65.80
10123;DHT22;5101;49.038;8.710;2023-03-31T10:28:19;19.60;65.40
10123;DHT22;5101;49.038;8.710;2023-03-31T10:30:48;19.50;65.00
10123;DHT22;5101;49.038;8.710;2023-03-31T10:33:21;19.50;64.90
10123;DHT22;5101;49.038;8.710;2023-03-31T10:35:57;19.40;64.40
10123;DHT22;5101;49.038;8.710;2023-03-31T10:38:36;19.30;64.30
10123;DHT22;5101;49.038;8.710;2023-03-31T10:41:05;19.10;64.30
10123;DHT22;5101;49.038;8.710;2023-03-31T10:43:54;18.80;65.30
10123;DHT22;5101;49.038;8.710;2023-03-31T10:46:20;18.70;65.70
10123;DHT22;5101;49.038;8.710;2023-03-31T10:48:45;18.50;66.30
10123;DHT22;5101;49.038;8.710;2023-03-31T10:51:19;18.60;66.30
10123;DHT22;5101;49.038;8.710;2023-03-31T10:53:53;18.60;66.30
10123;DHT22;5101;49.038;8.710;2023-03-31T11:20:26;15.80;82.30
10123;DHT22;5101;49.038;8.710;2023-03-31T11:23:12;15.60;83.10
10123;DHT22;5101;49.038;8.710;2023-03-31T11:28:35;15.00;83.20
10123;DHT22;5101;49.038;8.710;2023-03-31T11:34:19;14.60;82.80
10123;DHT22;5101;49.038;8.710;2023-03-31T11:36:53;14.50;82.90
10123;DHT22;5101;49.038;8.710;2023-03-31T11:42:19;14.40;83.70
10123;DHT22;5101;49.038;8.710;2023-03-31T11:44:52;14.40;84.40
10123;DHT22;5101;49.038;8.710;2023-03-31T11:47:26;14.40;84.20
10123;DHT22;5101;49.038;8.710;2023-03-31T11:49:58;14.40;84.50
10123;DHT22;5101;49.038;8.710;2023-03-31T11:52:31;14.50;84.90
10123;DHT22;5101;49.038;8.710;2023-03-31T11:58:02;14.60;86.40
10123;DHT22;5101;49.038;8.710;2023-03-31T12:00:31;14.70;86.00
10123;DHT22;5101;49.038;8.710;2023-03-31T12:03:20;14.80;85.50
10123;DHT22;5101;49.038;8.710;2023-03-31T12:05:50;15.00;85.40
10123;DHT22;5101;49.038;8.710;2023-03-31T12:08:25;15.20;84.40
10123;DHT22;5101;49.038;8.710;2023-03-31T12:10:58;15.40;84.60
10123;DHT22;5101;49.038;8.710;2023-03-31T12:24:59;15.50;78.30
10123;DHT22;5101;49.038;8.710;2023-03-31T12:27:42;15.40;77.60
10123;DHT22;5101;49.038;8.710;2023-03-31T12:30:21;15.50;77.40
10123;DHT22;5101;49.038;8.710;2023-03-31T12:36:18;15.40;76.70
10123;DHT22;5101;49.038;8.710;2023-03-31T12:47:33;15.10;78.00
10123;DHT22;5101;49.038;8.710;2023-03-31T12:55:36;15.60;78.00
10123;DHT22;5101;49.038;8.710;2023-03-31T13:06:00;15.60;77.30
10123;DHT22;5101;49.038;8.710;2023-03-31T13:11:14;15.70;77.40
10123;DHT22;5101;49.038;8.710;2023-03-31T13:14:39;15.80;77.50
10123;DHT22;5101;49.038;8.710;2023-03-31T13:16:46;15.90;77.40
10123;DHT22;5101;49.038;8.710;2023-03-31T13:19:32;15.90;77.20
10123;DHT22;5101;49.038;8.710;2023-03-31T13:22:01;15.70;77.00
10123;DHT22;5101;49.038;8.710;2023-03-31T13:24:29;15.70;77.10
10123;DHT22;5101;49.038;8.710;2023-03-31T13:26:56;15.50;76.90
10123;DHT22;5101;49.038;8.710;2023-03-31T13:29:43;15.40;76.90
10123;DHT22;5101;49.038;8.710;2023-03-31T13:34:44;15.50;77.10
10123;DHT22;5101;49.038;8.710;2023-03-31T13:37:47;15.60;77.50
10123;DHT22;5101;49.038;8.710;2023-03-31T13:41:00;15.60;77.60
10123;DHT22;5101;49.038;8.710;2023-03-31T13:43:42;15.70;77.70
10123;DHT22;5101;49.038;8.710;2023-03-31T13:51:27;15.60;77.20
10123;DHT22;5101;49.038;8.710;2023-03-31T14:02:31;15.60;76.80
10123;DHT22;5101;49.038;8.710;2023-03-31T14:05:04;15.60;76.10
10123;DHT22;5101;49.038;8.710;2023-03-31T14:07:43;15.60;75.60
10123;DHT22;5101;49.038;8.710;2023-03-31T14:13:12;15.70;75.60
10123;DHT22;5101;49.038;8.710;2023-03-31T14:15:46;15.90;75.10
10123;DHT22;5101;49.038;8.710;2023-03-31T14:18:18;15.90;74.80
10123;DHT22;5101;49.038;8.710;2023-03-31T14:20:47;15.80;74.00
10123;DHT22;5101;49.038;8.710;2023-03-31T14:26:06;15.70;74.00
10123;DHT22;5101;49.038;8.710;2023-03-31T14:28:54;15.70;74.10
10123;DHT22;5101;49.038;8.710;2023-03-31T14:31:33;15.70;74.10
10123;DHT22;5101;49.038;8.710;2023-03-31T14:34:24;15.70;74.50
10123;DHT22;5101;49.038;8.710;2023-03-31T14:39:28;15.80;74.70
10123;DHT22;5101;49.038;8.710;2023-03-31T14:41:58;15.60;74.10
10123;DHT22;5101;49.038;8.710;2023-03-31T14:44:24;15.50;73.80
10123;DHT22;5101;49.038;8.710;2023-03-31T14:46:51;15.40;74.60
10123;DHT22;5101;49.038;8.710;2023-03-31T14:49:28;15.40;75.40
10123;DHT22;5101;49.038;8.710;2023-03-31T14:51:59;15.40;75.90
10123;DHT22;5101;49.038;8.710;2023-03-31T14:54:24;15.40;75.90
10123;DHT22;5101;49.038;8.710;2023-03-31T14:56:56;15.40;76.20
10123;DHT22;5101;49.038;8.710;2023-03-31T14:59:25;15.40;76.40
10123;DHT22;5101;49.038;8.710;2023-03-31T15:01:53;15.30;76.20
10123;DHT22;5101;49.038;8.710;2023-03-31T15:04:23;15.30;76.30
10123;DHT22;5101;49.038;8.710;2023-03-31T15:06:50;15.30;76.40
10123;DHT22;5101;49.038;8.710;2023-03-31T15:09:20;15.30;76.50
10123;DHT22;5101;49.038;8.710;2023-03-31T15:11:53;15.30;76.30
10123;DHT22;5101;49.038;8.710;2023-03-31T15:14:19;15.30;76.20
10123;DHT22;5101;49.038;8.710;2023-03-31T15:16:45;15.20;76.30
10123;DHT22;5101;49.038;8.710;2023-03-31T15:19:20;15.30;76.30
10123;DHT22;5101;49.038;8.710;2023-03-31T15:24:35;15.30;76.20
10123;DHT22;5101;49.038;8.710;2023-03-31T15:27:05;15.20;76.30
10123;DHT22;5101;49.038;8.710;2023-03-31T15:29:40;15.20;76.50
10123;DHT22;5101;49.038;8.710;2023-03-31T15:32:12;15.20;77.40
10123;DHT22;5101;49.038;8.710;2023-03-31T15:34:38;15.00;80.20
10123;DHT22;5101;49.038;8.710;2023-03-31T15:37:07;14.80;82.70
10123;DHT22;5101;49.038;8.710;2023-03-31T15:39:34;14.50;85.00
10123;DHT22;5101;49.038;8.710;2023-03-31T15:42:03;14.40;87.30
10123;DHT22;5101;49.038;8.710;2023-03-31T15:44:36;14.30;89.00
10123;DHT22;5101;49.038;8.710;2023-03-31T15:49:36;14.20;90.80
10123;DHT22;5101;49.038;8.710;2023-03-31T15:52:01;14.20;90.80
10123;DHT22;5101;49.038;8.710;2023-03-31T15:54:32;14.20;91.00
10123;DHT22;5101;49.038;8.710;2023-03-31T15:57:00;14.20;91.20
10123;DHT22;5101;49.038;8.710;2023-03-31T15:59:27;14.10;91.30
10123;DHT22;5101;49.038;8.710;2023-03-31T16:01:55;14.10;91.30
10123;DHT22;5101;49.038;8.710;2023-03-31T16:04:21;14.10;91.40
10123;DHT22;5101;49.038;8.710;2023-03-31T16:06:56;14.10;91.30
10123;DHT22;5101;49.038;8.710;2023-03-31T16:09:30;14.00;90.90
10123;DHT22;5101;49.038;8.710;2023-03-31T16:12:04;14.00;90.50
10123;DHT22;5101;49.038;8.710;2023-03-31T16:14:37;13.90;90.20
10123;DHT22;5101;49.038;8.710;2023-03-31T16:17:18;13.90;89.70
10123;DHT22;5101;49.038;8.710;2023-03-31T16:19:53;13.90;89.00
10123;DHT22;5101;49.038;8.710;2023-03-31T16:22:25;13.90;88.40
10123;DHT22;5101;49.038;8.710;2023-03-31T16:24:52;13.80;87.60
10123;DHT22;5101;49.038;8.710;2023-03-31T16:27:18;13.80;86.60
10123;DHT22;5101;49.038;8.710;2023-03-31T16:29:43;13.80;85.90
10123;DHT22;5101;49.038;8.710;2023-03-31T16:32:12;13.80;85.60
10123;DHT22;5101;49.038;8.710;2023-03-31T16:34:54;13.70;85.40
10123;DHT22;5101;49.038;8.710;2023-03-31T16:37:20;13.70;85.10
10123;DHT22;5101;49.038;8.710;2023-03-31T16:39:46;13.70;84.70
10123;DHT22;5101;49.038;8.710;2023-03-31T16:42:11;13.60;84.30
10123;DHT22;5101;49.038;8.710;2023-03-31T16:44:37;13.60;84.10
10123;DHT22;5101;49.038;8.710;2023-03-31T16:47:02;13.60;84.70
10123;DHT22;5101;49.038;8.710;2023-03-31T16:49:28;13.40;85.60
10123;DHT22;5101;49.038;8.710;2023-03-31T16:51:53;13.30;87.00
10123;DHT22;5101;49.038;8.710;2023-03-31T16:54:19;13.20;89.10
10123;DHT22;5101;49.038;8.710;2023-03-31T16:56:44;13.00;90.50
10123;DHT22;5101;49.038;8.710;2023-03-31T16:59:12;12.90;91.70
10123;DHT22;5101;49.038;8.710;2023-03-31T17:01:38;12.70;92.90
10123;DHT22;5101;49.038;8.710;2023-03-31T17:04:03;12.60;93.60
10123;DHT22;5101;49.038;8.710;2023-03-31T17:06:29;12.60;94.10
10123;DHT22;5101;49.038;8.710;2023-03-31T17:08:55;12.50;94.40
10123;DHT22;5101;49.038;8.710;2023-03-31T17:11:20;12.50;94.70
10123;DHT22;5101;49.038;8.710;2023-03-31T17:13:47;12.50;95.10
10123;DHT22;5101;49.038;8.710;2023-03-31T17:16:13;12.40;95.60
10123;DHT22;5101;49.038;8.710;2023-03-31T17:18:39;12.40;96.20
10123;DHT22;5101;49.038;8.710;2023-03-31T17:21:06;12.20;96.80
10123;DHT22;5101;49.038;8.710;2023-03-31T17:23:32;12.20;97.50
10123;DHT22;5101;49.038;8.710;2023-03-31T17:25:58;12.10;97.90
10123;DHT22;5101;49.038;8.710;2023-03-31T17:28:23;12.00;98.40
10123;DHT22;5101;49.038;8.710;2023-03-31T17:30:49;11.90;98.90
10123;DHT22;5101;49.038;8.710;2023-03-31T17:33:15;11.80;99.40
10123;DHT22;5101;49.038;8.710;2023-03-31T17:35:42;11.70;99.90
10123;DHT22;5101;49.038;8.710;2023-03-31T17:38:08;11.60;99.90
10123;DHT22;5101;49.038;8.710;2023-03-31T17:40:35;11.50;99.90
10123;DHT22;5101;49.038;8.710;2023-03-31T17:43:01;11.40;99.90
10123;DHT22;5101;49.038;8.710;2023-03-31T17:45:30;11.40;99.90
10123;DHT22;5101;49.038;8.710;2023-03-31T17:47:57;11.30;99.90
10123;DHT22;5101;49.038;8.710;2023-03-31T17:50:23;11.30;99.90
10123;DHT22;5101;49.038;8.710;2023-03-31T17:52:48;11.30;99.90
10123;DHT22;5101;49.038;8.710;2023-03-31T17:55:14;11.20;99.90
10123;DHT22;5101;49.038;8.710;2023-03-31T17:57:41;11.20;99.90
10123;DHT22;5101;49.038;8.710;2023-03-31T18:00:08;11.20;99.90
10123;DHT22;5101;49.038;8.710;2023-03-31T18:02:37;11.20;99.90
10123;DHT22;5101;49.038;8.710;2023-03-31T18:05:07;11.20;99.90
10123;DHT22;5101;49.038;8.710;2023-03-31T18:07:34;11.10;99.90
10123;DHT22;5101;49.038;8.710;2023-03-31T18:10:00;11.10;99.90
10123;DHT22;5101;49.038;8.710;2023-03-31T18:12:26;11.20;99.90
10123;DHT22;5101;49.038;8.710;2023-03-31T18:14:53;11.20;99.90
10123;DHT22;5101;49.038;8.710;2023-03-31T18:17:19;11.20;99.90
10123;DHT22;5101;49.038;8.710;2023-03-31T18:19:45;11.10;99.90
10123;DHT22;5101;49.038;8.710;2023-03-31T18:22:11;11.10;99.90
10123;DHT22;5101;49.038;8.710;2023-03-31T18:24:36;11.10;99.90
10123;DHT22;5101;49.038;8.710;2023-03-31T18:27:03;11.10;99.90
10123;DHT22;5101;49.038;8.710;2023-03-31T18:29:29;11.00;99.90
10123;DHT22;5101;49.038;8.710;2023-03-31T18:31:55;11.00;99.90
10123;DHT22;5101;49.038;8.710;2023-03-31T18:34:20;11.00;99.90
10123;DHT22;5101;49.038;8.710;2023-03-31T18:36:46;11.00;99.90